sensor_id;sensor_type;location;lat;lon;timestamp;temperature;humidity
69208;SHT31;70114;47.690;8.898;2023-06-22T00:01:54;22.46;72.41
69208;SHT31;70114;47.690;8.898;2023-06-22T00:04:19;22.49;72.29
69208;SHT31;70114;47.690;8.898;2023-06-22T00:06:45;22.12;73.83
69208;SHT31;70114;47.690;8.898;2023-06-22T00:09:10;22.30;72.81
69208;SHT31;70114;47.690;8.898;2023-06-22T00:11:39;22.26;73.19
69208;SHT31;70114;47.690;8.898;2023-06-22T00:14:04;22.26;73.04
69208;SHT31;70114;47.690;8.898;2023-06-22T00:16:32;22.26;72.82
69208;SHT31;70114;47.690;8.898;2023-06-22T00:18:57;22.29;72.51
69208;SHT31;70114;47.690;8.898;2023-06-22T00:21:28;22.18;73.06
69208;SHT31;70114;47.690;8.898;2023-06-22T00:23:54;22.13;73.22
69208;SHT31;70114;47.690;8.898;2023-06-22T00:26:20;22.19;73.04
69208;SHT31;70114;47.690;8.898;2023-06-22T00:28:46;22.01;73.53
69208;SHT31;70114;47.690;8.898;2023-06-22T00:31:11;22.10;73.08
69208;SHT31;70114;47.690;8.898;2023-06-22T00:33:37;22.10;72.93
69208;SHT31;70114;47.690;8.898;2023-06-22T00:36:02;22.13;72.90
69208;SHT31;70114;47.690;8.898;2023-06-22T00:38:28;22.08;73.11
69208;SHT31;70114;47.690;8.898;2023-06-22T00:40:54;22.15;72.75
69208;SHT31;70114;47.690;8.898;2023-06-22T00:43:19;22.01;73.33
69208;SHT31;70114;47.690;8.898;2023-06-22T00:45:45;21.99;72.86
69208;SHT31;70114;47.690;8.898;2023-06-22T00:48:12;21.95;72.88
69208;SHT31;70114;47.690;8.898;2023-06-22T00:50:38;21.78;73.51
69208;SHT31;70114;47.690;8.898;2023-06-22T00:53:08;21.46;74.98
69208;SHT31;70114;47.690;8.898;2023-06-22T00:55:42;21.37;75.43
69208;SHT31;70114;47.690;8.898;2023-06-22T00:58:17;21.34;74.98
69208;SHT31;70114;47.690;8.898;2023-06-22T01:00:42;21.19;75.93
69208;SHT31;70114;47.690;8.898;2023-06-22T01:03:08;21.13;75.84
69208;SHT31;70114;47.690;8.898;2023-06-22T01:05:34;21.22;75.75
69208;SHT31;70114;47.690;8.898;2023-06-22T01:10:53;21.10;76.06
69208;SHT31;70114;47.690;8.898;2023-06-22T01:16:12;20.98;76.55
69208;SHT31;70114;47.690;8.898;2023-06-22T01:18:41;20.99;76.50
69208;SHT31;70114;47.690;8.898;2023-06-22T01:21:11;20.96;76.86
69208;SHT31;70114;47.690;8.898;2023-06-22T01:26:20;20.89;77.09
69208;SHT31;70114;47.690;8.898;2023-06-22T01:28:53;20.96;76.30
69208;SHT31;70114;47.690;8.898;2023-06-22T01:31:22;21.06;75.77
69208;SHT31;70114;47.690;8.898;2023-06-22T01:33:54;20.82;76.09
69208;SHT31;70114;47.690;8.898;2023-06-22T01:36:22;21.00;75.66
69208;SHT31;70114;47.690;8.898;2023-06-22T01:38:49;20.84;76.45
69208;SHT31;70114;47.690;8.898;2023-06-22T01:41:16;20.99;76.02
69208;SHT31;70114;47.690;8.898;2023-06-22T01:43:42;21.10;75.54
69208;SHT31;70114;47.690;8.898;2023-06-22T01:46:09;21.07;76.07
69208;SHT31;70114;47.690;8.898;2023-06-22T01:48:35;21.16;75.31
69208;SHT31;70114;47.690;8.898;2023-06-22T01:51:02;21.19;75.05
69208;SHT31;70114;47.690;8.898;2023-06-22T01:53:27;21.27;74.48
69208;SHT31;70114;47.690;8.898;2023-06-22T01:55:53;21.30;74.27
69208;SHT31;70114;47.690;8.898;2023-06-22T01:58:20;21.31;73.92
69208;SHT31;70114;47.690;8.898;2023-06-22T02:00:54;21.27;73.62
69208;SHT31;70114;47.690;8.898;2023-06-22T02:03:31;21.24;73.46
69208;SHT31;70114;47.690;8.898;2023-06-22T02:06:26;21.13;73.95
69208;SHT31;70114;47.690;8.898;2023-06-22T02:08:59;21.18;74.17
69208;SHT31;70114;47.690;8.898;2023-06-22T02:11:26;21.00;74.49
69208;SHT31;70114;47.690;8.898;2023-06-22T02:13:55;20.91;75.57
69208;SHT31;70114;47.690;8.898;2023-06-22T02:16:22;21.02;74.68
69208;SHT31;70114;47.690;8.898;2023-06-22T02:18:48;21.07;74.46
69208;SHT31;70114;47.690;8.898;2023-06-22T02:21:18;21.03;74.68
69208;SHT31;70114;47.690;8.898;2023-06-22T02:23:43;21.09;74.41
69208;SHT31;70114;47.690;8.898;2023-06-22T02:26:09;21.03;74.68
69208;SHT31;70114;47.690;8.898;2023-06-22T02:28:34;21.09;74.55
69208;SHT31;70114;47.690;8.898;2023-06-22T02:31:00;21.09;74.29
69208;SHT31;70114;47.690;8.898;2023-06-22T02:33:25;20.98;75.21
69208;SHT31;70114;47.690;8.898;2023-06-22T02:35:51;20.92;75.40
69208;SHT31;70114;47.690;8.898;2023-06-22T02:38:16;20.98;75.33
69208;SHT31;70114;47.690;8.898;2023-06-22T02:40:42;20.96;75.46
69208;SHT31;70114;47.690;8.898;2023-06-22T02:43:08;21.06;75.32
69208;SHT31;70114;47.690;8.898;2023-06-22T02:45:33;21.03;75.15
69208;SHT31;70114;47.690;8.898;2023-06-22T02:47:58;21.10;74.79
69208;SHT31;70114;47.690;8.898;2023-06-22T02:50:24;21.10;74.90
69208;SHT31;70114;47.690;8.898;2023-06-22T02:52:49;20.99;75.27
69208;SHT31;70114;47.690;8.898;2023-06-22T02:55:15;21.04;74.94
69208;SHT31;70114;47.690;8.898;2023-06-22T02:57:40;21.10;74.43
69208;SHT31;70114;47.690;8.898;2023-06-22T03:00:09;20.92;75.35
69208;SHT31;70114;47.690;8.898;2023-06-22T03:02:43;20.64;76.62
69208;SHT31;70114;47.690;8.898;2023-06-22T03:05:09;20.75;76.40
69208;SHT31;70114;47.690;8.898;2023-06-22T03:07:39;20.64;76.62
69208;SHT31;70114;47.690;8.898;2023-06-22T03:10:05;20.69;76.53
69208;SHT31;70114;47.690;8.898;2023-06-22T03:12:30;20.76;75.96
69208;SHT31;70114;47.690;8.898;2023-06-22T03:14:55;20.79;75.72
69208;SHT31;70114;47.690;8.898;2023-06-22T03:17:21;20.82;75.85
69208;SHT31;70114;47.690;8.898;2023-06-22T03:19:46;20.34;77.48
69208;SHT31;70114;47.690;8.898;2023-06-22T03:22:11;20.45;77.60
69208;SHT31;70114;47.690;8.898;2023-06-22T03:24:37;20.55;76.83
69208;SHT31;70114;47.690;8.898;2023-06-22T03:27:04;20.59;76.54
69208;SHT31;70114;47.690;8.898;2023-06-22T03:29:30;20.18;78.49
69208;SHT31;70114;47.690;8.898;2023-06-22T03:31:56;20.30;78.08
69208;SHT31;70114;47.690;8.898;2023-06-22T03:34:21;20.12;79.15
69208;SHT31;70114;47.690;8.898;2023-06-22T03:36:47;20.31;78.31
69208;SHT31;70114;47.690;8.898;2023-06-22T03:39:12;20.49;77.44
69208;SHT31;70114;47.690;8.898;2023-06-22T03:41:38;20.55;76.99
69208;SHT31;70114;47.690;8.898;2023-06-22T03:44:04;20.33;77.92
69208;SHT31;70114;47.690;8.898;2023-06-22T03:46:29;20.48;77.45
69208;SHT31;70114;47.690;8.898;2023-06-22T03:48:54;20.63;76.94
69208;SHT31;70114;47.690;8.898;2023-06-22T03:51:20;20.45;77.69
69208;SHT31;70114;47.690;8.898;2023-06-22T03:53:45;20.28;78.86
69208;SHT31;70114;47.690;8.898;2023-06-22T03:56:10;20.41;78.19
69208;SHT31;70114;47.690;8.898;2023-06-22T03:58:36;20.64;77.34
69208;SHT31;70114;47.690;8.898;2023-06-22T04:01:07;20.72;76.82
69208;SHT31;70114;47.690;8.898;2023-06-22T04:03:36;20.63;77.36
69208;SHT31;70114;47.690;8.898;2023-06-22T04:06:02;20.75;77.04
69208;SHT31;70114;47.690;8.898;2023-06-22T04:08:27;20.82;76.62
69208;SHT31;70114;47.690;8.898;2023-06-22T04:10:53;20.69;76.87
69208;SHT31;70114;47.690;8.898;2023-06-22T04:13:18;20.74;77.13
69208;SHT31;70114;47.690;8.898;2023-06-22T04:15:44;20.64;77.90
69208;SHT31;70114;47.690;8.898;2023-06-22T04:18:10;20.88;76.87
69208;SHT31;70114;47.690;8.898;2023-06-22T04:20:35;20.74;78.08
69208;SHT31;70114;47.690;8.898;2023-06-22T04:23:01;20.79;77.75
69208;SHT31;70114;47.690;8.898;2023-06-22T04:25:27;20.95;76.95
69208;SHT31;70114;47.690;8.898;2023-06-22T04:27:52;20.59;78.49
69208;SHT31;70114;47.690;8.898;2023-06-22T04:30:18;20.72;77.95
69208;SHT31;70114;47.690;8.898;2023-06-22T04:32:43;20.89;77.60
69208;SHT31;70114;47.690;8.898;2023-06-22T04:35:10;20.98;77.02
69208;SHT31;70114;47.690;8.898;2023-06-22T04:37:35;20.84;77.74
69208;SHT31;70114;47.690;8.898;2023-06-22T04:40:01;20.88;77.79
69208;SHT31;70114;47.690;8.898;2023-06-22T04:42:26;21.06;77.16
69208;SHT31;70114;47.690;8.898;2023-06-22T04:44:52;21.23;76.53
69208;SHT31;70114;47.690;8.898;2023-06-22T04:47:18;20.99;77.49
69208;SHT31;70114;47.690;8.898;2023-06-22T04:49:43;21.07;77.38
69208;SHT31;70114;47.690;8.898;2023-06-22T04:52:10;21.22;76.57
69208;SHT31;70114;47.690;8.898;2023-06-22T04:54:37;21.39;76.17
69208;SHT31;70114;47.690;8.898;2023-06-22T04:57:06;21.10;77.68
69208;SHT31;70114;47.690;8.898;2023-06-22T04:59:35;21.27;76.40
69208;SHT31;70114;47.690;8.898;2023-06-22T05:02:01;21.50;75.92
69208;SHT31;70114;47.690;8.898;2023-06-22T05:04:29;21.53;75.86
69208;SHT31;70114;47.690;8.898;2023-06-22T05:06:57;21.30;76.85
69208;SHT31;70114;47.690;8.898;2023-06-22T05:09:22;21.53;76.15
69208;SHT31;70114;47.690;8.898;2023-06-22T05:11:48;21.57;75.97
69208;SHT31;70114;47.690;8.898;2023-06-22T05:14:13;21.81;75.32
69208;SHT31;70114;47.690;8.898;2023-06-22T05:16:41;21.65;76.25
69208;SHT31;70114;47.690;8.898;2023-06-22T05:19:07;21.39;76.44
69208;SHT31;70114;47.690;8.898;2023-06-22T05:21:32;21.64;76.02
69208;SHT31;70114;47.690;8.898;2023-06-22T05:23:58;21.84;75.33
69208;SHT31;70114;47.690;8.898;2023-06-22T05:26:26;21.71;75.65
69208;SHT31;70114;47.690;8.898;2023-06-22T05:28:52;21.65;76.05
69208;SHT31;70114;47.690;8.898;2023-06-22T05:31:18;21.97;74.77
69208;SHT31;70114;47.690;8.898;2023-06-22T05:33:49;22.06;74.35
69208;SHT31;70114;47.690;8.898;2023-06-22T05:36:15;22.01;74.50
69208;SHT31;70114;47.690;8.898;2023-06-22T05:38:41;21.84;74.74
69208;SHT31;70114;47.690;8.898;2023-06-22T05:41:07;21.73;75.38
69208;SHT31;70114;47.690;8.898;2023-06-22T05:43:32;21.89;75.18
69208;SHT31;70114;47.690;8.898;2023-06-22T05:45:59;22.01;74.76
69208;SHT31;70114;47.690;8.898;2023-06-22T05:48:24;22.04;74.74
69208;SHT31;70114;47.690;8.898;2023-06-22T05:50:50;22.42;73.57
69208;SHT31;70114;47.690;8.898;2023-06-22T05:53:15;22.45;73.42
69208;SHT31;70114;47.690;8.898;2023-06-22T05:55:41;22.61;72.48
69208;SHT31;70114;47.690;8.898;2023-06-22T05:58:07;22.77;72.13
69208;SHT31;70114;47.690;8.898;2023-06-22T06:00:34;22.81;71.17
69208;SHT31;70114;47.690;8.898;2023-06-22T06:02:59;22.91;71.09
69208;SHT31;70114;47.690;8.898;2023-06-22T06:05:32;22.59;72.66
69208;SHT31;70114;47.690;8.898;2023-06-22T06:08:02;22.47;72.56
69208;SHT31;70114;47.690;8.898;2023-06-22T06:10:32;22.57;72.94
69208;SHT31;70114;47.690;8.898;2023-06-22T06:12:57;22.66;72.24
69208;SHT31;70114;47.690;8.898;2023-06-22T06:15:29;22.50;72.95
69208;SHT31;70114;47.690;8.898;2023-06-22T06:17:55;22.75;71.69
69208;SHT31;70114;47.690;8.898;2023-06-22T06:20:23;22.86;71.10
69208;SHT31;70114;47.690;8.898;2023-06-22T06:22:49;22.80;71.52
69208;SHT31;70114;47.690;8.898;2023-06-22T06:25:15;23.04;70.64
69208;SHT31;70114;47.690;8.898;2023-06-22T06:27:44;22.52;72.39
69208;SHT31;70114;47.690;8.898;2023-06-22T06:30:14;22.53;73.07
69208;SHT31;70114;47.690;8.898;2023-06-22T06:32:40;23.08;70.96
69208;SHT31;70114;47.690;8.898;2023-06-22T06:35:06;23.33;70.13
69208;SHT31;70114;47.690;8.898;2023-06-22T06:37:35;23.10;69.78
69208;SHT31;70114;47.690;8.898;2023-06-22T06:40:00;23.05;70.27
69208;SHT31;70114;47.690;8.898;2023-06-22T06:42:25;23.21;70.98
69208;SHT31;70114;47.690;8.898;2023-06-22T06:44:51;23.33;69.69
69208;SHT31;70114;47.690;8.898;2023-06-22T06:47:16;23.58;70.03
69208;SHT31;70114;47.690;8.898;2023-06-22T06:49:42;23.65;68.65
69208;SHT31;70114;47.690;8.898;2023-06-22T06:52:08;23.84;68.18
69208;SHT31;70114;47.690;8.898;2023-06-22T06:54:33;23.96;67.91
69208;SHT31;70114;47.690;8.898;2023-06-22T06:56:59;24.03;67.68
69208;SHT31;70114;47.690;8.898;2023-06-22T06:59:24;23.71;68.64
69208;SHT31;70114;47.690;8.898;2023-06-22T07:01:49;23.88;68.19
69208;SHT31;70114;47.690;8.898;2023-06-22T07:04:15;23.96;67.39
69208;SHT31;70114;47.690;8.898;2023-06-22T07:06:40;24.11;67.01
69208;SHT31;70114;47.690;8.898;2023-06-22T07:09:26;24.13;66.93
69208;SHT31;70114;47.690;8.898;2023-06-22T07:11:51;23.83;69.25
69208;SHT31;70114;47.690;8.898;2023-06-22T07:14:17;24.17;67.58
69208;SHT31;70114;47.690;8.898;2023-06-22T07:16:42;24.31;67.78
69208;SHT31;70114;47.690;8.898;2023-06-22T07:19:07;24.24;66.98
69208;SHT31;70114;47.690;8.898;2023-06-22T07:21:33;24.28;66.86
69208;SHT31;70114;47.690;8.898;2023-06-22T07:23:58;24.39;67.08
69208;SHT31;70114;47.690;8.898;2023-06-22T07:26:24;24.61;66.63
69208;SHT31;70114;47.690;8.898;2023-06-22T07:28:49;24.80;66.31
69208;SHT31;70114;47.690;8.898;2023-06-22T07:31:16;24.83;64.83
69208;SHT31;70114;47.690;8.898;2023-06-22T07:33:41;24.36;67.52
69208;SHT31;70114;47.690;8.898;2023-06-22T07:36:09;24.61;67.47
69208;SHT31;70114;47.690;8.898;2023-06-22T07:38:48;25.03;65.91
69208;SHT31;70114;47.690;8.898;2023-06-22T07:41:16;25.02;65.34
69208;SHT31;70114;47.690;8.898;2023-06-22T07:43:41;24.84;65.54
69208;SHT31;70114;47.690;8.898;2023-06-22T07:46:07;25.28;65.14
69208;SHT31;70114;47.690;8.898;2023-06-22T07:48:37;25.27;63.96
69208;SHT31;70114;47.690;8.898;2023-06-22T07:51:03;25.07;63.49
69208;SHT31;70114;47.690;8.898;2023-06-22T07:53:28;24.79;65.69
69208;SHT31;70114;47.690;8.898;2023-06-22T07:55:53;24.87;66.34
69208;SHT31;70114;47.690;8.898;2023-06-22T07:58:19;24.55;68.77
69208;SHT31;70114;47.690;8.898;2023-06-22T08:00:46;24.36;69.43
69208;SHT31;70114;47.690;8.898;2023-06-22T08:03:12;24.49;68.54
69208;SHT31;70114;47.690;8.898;2023-06-22T08:05:38;24.55;68.41
69208;SHT31;70114;47.690;8.898;2023-06-22T08:08:04;24.49;67.94
69208;SHT31;70114;47.690;8.898;2023-06-22T08:10:29;24.52;68.88
69208;SHT31;70114;47.690;8.898;2023-06-22T08:12:55;24.54;68.07
69208;SHT31;70114;47.690;8.898;2023-06-22T08:15:20;24.59;67.69
69208;SHT31;70114;47.690;8.898;2023-06-22T08:17:47;24.52;68.21
69208;SHT31;70114;47.690;8.898;2023-06-22T08:20:13;24.61;67.24
69208;SHT31;70114;47.690;8.898;2023-06-22T08:22:42;24.89;67.58
69208;SHT31;70114;47.690;8.898;2023-06-22T08:25:08;24.77;66.84
69208;SHT31;70114;47.690;8.898;2023-06-22T08:27:34;24.90;66.25
69208;SHT31;70114;47.690;8.898;2023-06-22T08:30:01;24.83;67.29
69208;SHT31;70114;47.690;8.898;2023-06-22T08:32:29;24.99;65.89
69208;SHT31;70114;47.690;8.898;2023-06-22T08:34:56;25.21;66.15
69208;SHT31;70114;47.690;8.898;2023-06-22T08:37:22;25.34;65.90
69208;SHT31;70114;47.690;8.898;2023-06-22T08:39:50;25.30;65.20
69208;SHT31;70114;47.690;8.898;2023-06-22T08:42:15;25.59;65.82
69208;SHT31;70114;47.690;8.898;2023-06-22T08:44:41;25.41;63.76
69208;SHT31;70114;47.690;8.898;2023-06-22T08:47:06;25.71;64.28
69208;SHT31;70114;47.690;8.898;2023-06-22T08:49:35;25.64;64.20
69208;SHT31;70114;47.690;8.898;2023-06-22T08:52:01;25.48;63.43
69208;SHT31;70114;47.690;8.898;2023-06-22T08:54:26;25.45;64.69
69208;SHT31;70114;47.690;8.898;2023-06-22T08:56:51;25.58;63.81
69208;SHT31;70114;47.690;8.898;2023-06-22T08:59:17;25.79;63.14
69208;SHT31;70114;47.690;8.898;2023-06-22T09:01:42;26.27;63.54
69208;SHT31;70114;47.690;8.898;2023-06-22T09:04:11;26.57;62.68
69208;SHT31;70114;47.690;8.898;2023-06-22T09:06:37;26.57;64.62
69208;SHT31;70114;47.690;8.898;2023-06-22T09:09:06;26.70;61.71
69208;SHT31;70114;47.690;8.898;2023-06-22T09:11:32;26.71;61.69
69208;SHT31;70114;47.690;8.898;2023-06-22T09:13:57;27.02;61.50
69208;SHT31;70114;47.690;8.898;2023-06-22T09:16:22;27.08;60.07
69208;SHT31;70114;47.690;8.898;2023-06-22T09:18:48;27.23;58.55
69208;SHT31;70114;47.690;8.898;2023-06-22T09:21:14;27.26;58.97
69208;SHT31;70114;47.690;8.898;2023-06-22T09:23:39;27.49;59.80
69208;SHT31;70114;47.690;8.898;2023-06-22T09:26:05;27.53;57.79
69208;SHT31;70114;47.690;8.898;2023-06-22T09:28:30;27.22;56.47
69208;SHT31;70114;47.690;8.898;2023-06-22T09:30:56;27.63;58.08
69208;SHT31;70114;47.690;8.898;2023-06-22T09:33:24;27.39;57.11
69208;SHT31;70114;47.690;8.898;2023-06-22T09:35:49;27.43;57.45
69208;SHT31;70114;47.690;8.898;2023-06-22T09:38:16;27.66;56.80
69208;SHT31;70114;47.690;8.898;2023-06-22T09:40:41;27.51;56.73
69208;SHT31;70114;47.690;8.898;2023-06-22T09:43:07;27.56;56.48
69208;SHT31;70114;47.690;8.898;2023-06-22T09:45:32;27.58;56.47
69208;SHT31;70114;47.690;8.898;2023-06-22T09:47:58;27.57;57.55
69208;SHT31;70114;47.690;8.898;2023-06-22T09:50:23;27.51;57.40
69208;SHT31;70114;47.690;8.898;2023-06-22T09:52:49;27.49;58.52
69208;SHT31;70114;47.690;8.898;2023-06-22T09:55:20;27.68;57.56
69208;SHT31;70114;47.690;8.898;2023-06-22T09:57:46;27.77;57.75
69208;SHT31;70114;47.690;8.898;2023-06-22T10:00:11;27.83;57.27
69208;SHT31;70114;47.690;8.898;2023-06-22T10:02:39;28.08;57.07
69208;SHT31;70114;47.690;8.898;2023-06-22T10:05:05;28.26;56.51
69208;SHT31;70114;47.690;8.898;2023-06-22T10:07:30;28.36;56.43
69208;SHT31;70114;47.690;8.898;2023-06-22T10:09:55;28.38;55.91
69208;SHT31;70114;47.690;8.898;2023-06-22T10:12:21;28.35;58.21
69208;SHT31;70114;47.690;8.898;2023-06-22T10:14:46;28.63;54.87
69208;SHT31;70114;47.690;8.898;2023-06-22T10:17:11;28.73;56.42
69208;SHT31;70114;47.690;8.898;2023-06-22T10:19:37;28.96;54.64
69208;SHT31;70114;47.690;8.898;2023-06-22T10:22:04;29.03;55.94
69208;SHT31;70114;47.690;8.898;2023-06-22T10:24:30;29.03;56.62
69208;SHT31;70114;47.690;8.898;2023-06-22T10:26:55;29.25;54.54
69208;SHT31;70114;47.690;8.898;2023-06-22T10:29:21;29.24;55.01
69208;SHT31;70114;47.690;8.898;2023-06-22T10:31:46;29.44;52.95
69208;SHT31;70114;47.690;8.898;2023-06-22T10:34:11;29.21;51.52
69208;SHT31;70114;47.690;8.898;2023-06-22T10:36:38;29.35;50.93
69208;SHT31;70114;47.690;8.898;2023-06-22T10:39:06;29.56;52.67
69208;SHT31;70114;47.690;8.898;2023-06-22T10:41:33;29.65;52.63
69208;SHT31;70114;47.690;8.898;2023-06-22T10:43:59;29.37;51.65
69208;SHT31;70114;47.690;8.898;2023-06-22T10:46:24;29.47;52.12
69208;SHT31;70114;47.690;8.898;2023-06-22T10:48:51;29.45;52.54
69208;SHT31;70114;47.690;8.898;2023-06-22T10:51:19;29.41;52.11
69208;SHT31;70114;47.690;8.898;2023-06-22T10:53:45;29.41;52.66
69208;SHT31;70114;47.690;8.898;2023-06-22T10:56:10;29.35;53.39
69208;SHT31;70114;47.690;8.898;2023-06-22T10:58:36;29.17;53.57
69208;SHT31;70114;47.690;8.898;2023-06-22T11:01:01;29.11;54.29
69208;SHT31;70114;47.690;8.898;2023-06-22T11:03:28;29.21;52.14
69208;SHT31;70114;47.690;8.898;2023-06-22T11:05:53;29.34;51.98
69208;SHT31;70114;47.690;8.898;2023-06-22T11:08:18;29.38;51.19
69208;SHT31;70114;47.690;8.898;2023-06-22T11:10:44;29.45;51.61
69208;SHT31;70114;47.690;8.898;2023-06-22T11:13:09;29.61;50.48
69208;SHT31;70114;47.690;8.898;2023-06-22T11:15:35;29.76;52.19
69208;SHT31;70114;47.690;8.898;2023-06-22T11:18:00;29.72;53.59
69208;SHT31;70114;47.690;8.898;2023-06-22T11:20:26;29.82;53.12
69208;SHT31;70114;47.690;8.898;2023-06-22T11:22:51;29.90;52.60
69208;SHT31;70114;47.690;8.898;2023-06-22T11:25:17;30.14;51.18
69208;SHT31;70114;47.690;8.898;2023-06-22T11:27:42;30.35;51.14
69208;SHT31;70114;47.690;8.898;2023-06-22T11:30:08;30.38;51.46
69208;SHT31;70114;47.690;8.898;2023-06-22T11:32:34;30.60;50.54
69208;SHT31;70114;47.690;8.898;2023-06-22T11:34:59;30.48;50.70
69208;SHT31;70114;47.690;8.898;2023-06-22T11:37:24;30.20;52.62
69208;SHT31;70114;47.690;8.898;2023-06-22T11:39:50;29.96;52.42
69208;SHT31;70114;47.690;8.898;2023-06-22T11:42:15;29.94;52.06
69208;SHT31;70114;47.690;8.898;2023-06-22T11:44:42;29.82;52.93
69208;SHT31;70114;47.690;8.898;2023-06-22T11:47:07;29.70;52.91
69208;SHT31;70114;47.690;8.898;2023-06-22T11:49:33;29.58;55.37
69208;SHT31;70114;47.690;8.898;2023-06-22T11:52:06;29.55;54.64
69208;SHT31;70114;47.690;8.898;2023-06-22T11:54:31;29.42;56.00
69208;SHT31;70114;47.690;8.898;2023-06-22T11:56:57;29.63;54.57
69208;SHT31;70114;47.690;8.898;2023-06-22T11:59:22;29.77;54.49
69208;SHT31;70114;47.690;8.898;2023-06-22T12:01:47;29.65;54.28
69208;SHT31;70114;47.690;8.898;2023-06-22T12:04:14;29.93;54.81
69208;SHT31;70114;47.690;8.898;2023-06-22T12:06:39;29.65;55.43
69208;SHT31;70114;47.690;8.898;2023-06-22T12:09:07;29.90;53.63
69208;SHT31;70114;47.690;8.898;2023-06-22T12:11:33;29.93;54.11
69208;SHT31;70114;47.690;8.898;2023-06-22T12:13:58;30.12;54.54
69208;SHT31;70114;47.690;8.898;2023-06-22T12:16:27;29.92;53.01
69208;SHT31;70114;47.690;8.898;2023-06-22T12:18:53;29.92;53.38
69208;SHT31;70114;47.690;8.898;2023-06-22T12:21:19;29.82;53.33
69208;SHT31;70114;47.690;8.898;2023-06-22T12:23:44;29.85;53.50
69208;SHT31;70114;47.690;8.898;2023-06-22T12:26:09;29.89;53.39
69208;SHT31;70114;47.690;8.898;2023-06-22T12:28:35;29.63;53.63
69208;SHT31;70114;47.690;8.898;2023-06-22T12:31:00;29.89;53.86
69208;SHT31;70114;47.690;8.898;2023-06-22T12:33:25;29.79;53.28
69208;SHT31;70114;47.690;8.898;2023-06-22T12:35:51;29.82;54.09
69208;SHT31;70114;47.690;8.898;2023-06-22T12:38:16;29.48;56.47
69208;SHT31;70114;47.690;8.898;2023-06-22T12:40:42;29.75;55.25
69208;SHT31;70114;47.690;8.898;2023-06-22T12:43:07;29.93;55.62
69208;SHT31;70114;47.690;8.898;2023-06-22T12:45:33;29.90;55.27
69208;SHT31;70114;47.690;8.898;2023-06-22T12:47:59;29.80;55.70
69208;SHT31;70114;47.690;8.898;2023-06-22T12:50:25;29.58;54.63
69208;SHT31;70114;47.690;8.898;2023-06-22T12:52:50;29.63;55.29
69208;SHT31;70114;47.690;8.898;2023-06-22T12:55:15;29.70;54.80
69208;SHT31;70114;47.690;8.898;2023-06-22T12:57:41;29.89;53.67
69208;SHT31;70114;47.690;8.898;2023-06-22T13:00:07;30.04;53.19
69208;SHT31;70114;47.690;8.898;2023-06-22T13:02:35;29.96;54.76
69208;SHT31;70114;47.690;8.898;2023-06-22T13:05:01;29.97;53.90
69208;SHT31;70114;47.690;8.898;2023-06-22T13:07:26;30.04;54.44
69208;SHT31;70114;47.690;8.898;2023-06-22T13:09:51;30.10;54.41
69208;SHT31;70114;47.690;8.898;2023-06-22T13:12:17;30.12;53.82
69208;SHT31;70114;47.690;8.898;2023-06-22T13:14:45;30.10;53.54
69208;SHT31;70114;47.690;8.898;2023-06-22T13:17:12;30.34;51.75
69208;SHT31;70114;47.690;8.898;2023-06-22T13:19:38;30.30;50.85
69208;SHT31;70114;47.690;8.898;2023-06-22T13:22:03;30.17;49.07
69208;SHT31;70114;47.690;8.898;2023-06-22T13:24:29;30.40;47.21
69208;SHT31;70114;47.690;8.898;2023-06-22T13:26:54;30.52;45.59
69208;SHT31;70114;47.690;8.898;2023-06-22T13:29:20;30.88;44.39
69208;SHT31;70114;47.690;8.898;2023-06-22T13:31:46;31.22;44.23
69208;SHT31;70114;47.690;8.898;2023-06-22T13:34:11;31.56;45.55
69208;SHT31;70114;47.690;8.898;2023-06-22T13:36:37;31.57;42.76
69208;SHT31;70114;47.690;8.898;2023-06-22T13:39:03;31.22;44.11
69208;SHT31;70114;47.690;8.898;2023-06-22T13:41:29;31.40;43.14
69208;SHT31;70114;47.690;8.898;2023-06-22T13:43:54;31.36;44.24
69208;SHT31;70114;47.690;8.898;2023-06-22T13:46:20;31.63;44.95
69208;SHT31;70114;47.690;8.898;2023-06-22T13:48:45;31.94;42.07
69208;SHT31;70114;47.690;8.898;2023-06-22T13:51:10;32.08;42.61
69208;SHT31;70114;47.690;8.898;2023-06-22T13:53:36;32.22;43.34
69208;SHT31;70114;47.690;8.898;2023-06-22T13:56:01;32.18;42.98
69208;SHT31;70114;47.690;8.898;2023-06-22T13:58:27;32.25;44.21
69208;SHT31;70114;47.690;8.898;2023-06-22T14:00:52;32.13;42.50
69208;SHT31;70114;47.690;8.898;2023-06-22T14:03:17;31.60;41.66
69208;SHT31;70114;47.690;8.898;2023-06-22T14:05:43;31.70;41.14
69208;SHT31;70114;47.690;8.898;2023-06-22T14:08:09;31.34;42.95
69208;SHT31;70114;47.690;8.898;2023-06-22T14:10:34;31.27;43.62
69208;SHT31;70114;47.690;8.898;2023-06-22T14:13:00;31.44;43.58
69208;SHT31;70114;47.690;8.898;2023-06-22T14:15:25;31.53;43.83
69208;SHT31;70114;47.690;8.898;2023-06-22T14:17:51;31.09;42.64
69208;SHT31;70114;47.690;8.898;2023-06-22T14:20:18;30.78;41.39
69208;SHT31;70114;47.690;8.898;2023-06-22T14:22:43;30.72;43.01
69208;SHT31;70114;47.690;8.898;2023-06-22T14:25:09;30.49;42.67
69208;SHT31;70114;47.690;8.898;2023-06-22T14:27:34;30.21;43.18
69208;SHT31;70114;47.690;8.898;2023-06-22T14:30:00;30.14;44.75
69208;SHT31;70114;47.690;8.898;2023-06-22T14:32:27;30.02;44.25
69208;SHT31;70114;47.690;8.898;2023-06-22T14:34:55;29.73;45.39
69208;SHT31;70114;47.690;8.898;2023-06-22T14:37:20;29.61;44.72
69208;SHT31;70114;47.690;8.898;2023-06-22T14:39:45;29.63;45.74
69208;SHT31;70114;47.690;8.898;2023-06-22T14:42:11;29.32;47.34
69208;SHT31;70114;47.690;8.898;2023-06-22T14:44:36;29.18;47.99
69208;SHT31;70114;47.690;8.898;2023-06-22T14:47:02;29.08;48.65
69208;SHT31;70114;47.690;8.898;2023-06-22T14:49:27;29.04;48.12
69208;SHT31;70114;47.690;8.898;2023-06-22T14:51:52;29.08;48.85
69208;SHT31;70114;47.690;8.898;2023-06-22T14:54:18;28.87;48.73
69208;SHT31;70114;47.690;8.898;2023-06-22T14:56:43;28.90;49.17
69208;SHT31;70114;47.690;8.898;2023-06-22T14:59:09;28.66;49.26
69208;SHT31;70114;47.690;8.898;2023-06-22T15:01:34;28.62;49.89
69208;SHT31;70114;47.690;8.898;2023-06-22T15:04:00;28.59;49.96
69208;SHT31;70114;47.690;8.898;2023-06-22T15:06:26;28.46;50.33
69208;SHT31;70114;47.690;8.898;2023-06-22T15:08:52;28.62;50.28
69208;SHT31;70114;47.690;8.898;2023-06-22T15:11:18;28.74;50.07
69208;SHT31;70114;47.690;8.898;2023-06-22T15:13:43;28.59;50.38
69208;SHT31;70114;47.690;8.898;2023-06-22T15:16:08;28.76;49.86
69208;SHT31;70114;47.690;8.898;2023-06-22T15:18:35;28.67;50.34
69208;SHT31;70114;47.690;8.898;2023-06-22T15:21:01;28.63;50.65
69208;SHT31;70114;47.690;8.898;2023-06-22T15:23:27;28.70;50.63
69208;SHT31;70114;47.690;8.898;2023-06-22T15:25:54;28.90;50.30
69208;SHT31;70114;47.690;8.898;2023-06-22T15:28:20;29.03;49.63
69208;SHT31;70114;47.690;8.898;2023-06-22T15:30:47;29.22;50.05
69208;SHT31;70114;47.690;8.898;2023-06-22T15:33:13;29.28;49.68